Time;durP1;ratioP1;P1;durP2;ratioP2;P2;SDS_P1;SDS_P2;PMS_P1;PMS_P2;Temp;Humidity;BMP_temperature;BMP_pressure;BME280_temperature;BME280_humidity;BME280_pressure;Samples;Min_cycle;Max_cycle;Signal;HPM_P1;HPM_P2
2022/04/26 03:37:29;;;;;;;45.53;27.13;;;;;;;;;;4919099;29;20034;-89
2022/04/26 03:39:54;;;;;;;50.05;29.30;;;;;;;;;;4905495;29;20060;-90
2022/04/26 03:42:20;;;;;;;43.80;26.85;;;;;;;;;;4902419;29;20024;-89
2022/04/26 03:44:45;;;;;;;48.95;27.88;;;;;;;;;;4919790;29;20028;-90
2022/04/26 03:47:10;;;;;;;49.38;27.65;;;;;;;;;;4919841;29;20024;-89
2022/04/26 03:49:35;;;;;;;43.40;25.35;;;;;;;;;;4902803;29;20269;-91
2022/04/26 03:52:01;;;;;;;52.00;26.98;;;;;;;;;;4904046;29;20285;-88
2022/04/26 03:54:26;;;;;;;45.67;26.30;;;;;;;;;;4921444;29;20084;-90
2022/04/26 03:56:51;;;;;;;45.03;25.58;;;;;;;;;;4927033;29;20028;-90
2022/04/26 03:59:16;;;;;;;54.40;28.25;;;;;;;;;;4928268;29;20039;-87
2022/04/26 04:01:42;;;;;;;49.22;25.05;;;;;;;;;;4930183;29;20104;-89
2022/04/26 04:04:07;;;;;;;47.50;27.25;;;;;;;;;;4928780;29;20031;-88
2022/04/26 04:06:33;;;;;;;45.38;26.08;;;;;;;;;;4914069;29;20366;-88
2022/04/26 04:08:58;;;;;;;47.95;25.63;;;;;;;;;;4941313;29;20024;-88
2022/04/26 04:11:23;;;;;;;44.50;26.45;;;;;;;;;;4924819;29;20028;-87
2022/04/26 04:13:48;;;;;;;46.67;26.40;;;;;;;;;;4942139;29;20024;-88
2022/04/26 04:16:14;;;;;;;47.25;25.27;;;;;;;;;;4942618;29;20016;-88
2022/04/26 04:21:23;;;;;;;43.03;24.55;;;;;;;;;;4942311;29;20018;-83
2022/04/26 04:23:48;;;;;;;44.15;26.05;;;;;;;;;;4936767;29;20052;-87
2022/04/26 04:26:14;;;;;;;44.40;24.73;;;;;;;;;;4917748;29;20024;-89
2022/04/26 04:28:39;;;;;;;44.17;24.08;;;;;;;;;;4908102;29;20020;-89
2022/04/26 04:31:04;;;;;;;39.08;24.30;;;;;;;;;;4918112;29;20103;-90
2022/04/26 04:33:29;;;;;;;47.97;26.48;;;;;;;;;;4901522;29;20107;-89
2022/04/26 04:35:55;;;;;;;44.90;24.55;;;;;;;;;;4918470;29;20057;-90
2022/04/26 04:38:20;;;;;;;42.17;24.73;;;;;;;;;;4909354;29;20063;-90
2022/04/26 04:40:46;;;;;;;47.15;24.67;;;;;;;;;;4901757;29;20024;-90
2022/04/26 04:43:11;;;;;;;45.08;24.90;;;;;;;;;;4901118;29;20119;-89
2022/04/26 04:45:36;;;;;;;44.85;24.75;;;;;;;;;;4907135;29;20084;-87
2022/04/26 04:48:03;;;;;;;41.97;24.55;;;;;;;;;;4918227;29;20020;-90
2022/04/26 04:50:29;;;;;;;44.15;25.17;;;;;;;;;;4918135;29;20020;-89
2022/04/26 04:52:54;;;;;;;41.28;24.73;;;;;;;;;;4917041;29;20095;-87
2022/04/26 04:55:19;;;;;;;43.80;23.98;;;;;;;;;;4917018;29;20016;-84
2022/04/26 04:57:45;;;;;;;45.95;24.85;;;;;;;;;;4901080;29;20370;-90
2022/04/26 05:00:10;;;;;;;42.95;25.83;;;;;;;;;;4900055;29;20036;-89
2022/04/26 05:02:35;;;;;;;43.08;25.67;;;;;;;;;;4918421;29;20067;-89
2022/04/26 05:05:01;;;;;;;59.30;28.08;;;;;;;;;;4903342;29;20075;-89
2022/04/26 05:07:26;;;;;;;47.65;25.08;;;;;;;;;;4901036;29;20059;-90
2022/04/26 05:09:52;;;;;;;40.83;23.17;;;;;;;;;;4900444;29;20079;-90
2022/04/26 05:12:19;;;;;;;44.65;24.63;;;;;;;;;;4919124;29;20012;-89
2022/04/26 05:14:44;;;;;;;42.55;23.15;;;;;;;;;;4917766;29;20091;-89
2022/04/26 05:17:09;;;;;;;41.88;23.27;;;;;;;;;;4916955;29;20111;-90
2022/04/26 05:19:34;;;;;;;43.08;23.92;;;;;;;;;;4917507;29;20016;-89
2022/04/26 05:22:00;;;;;;;40.75;23.95;;;;;;;;;;4900471;29;20071;-88
2022/04/26 05:27:12;;;;;;;39.10;23.30;;;;;;;;;;4917337;29;20090;-85
2022/04/26 05:29:37;;;;;;;36.47;22.80;;;;;;;;;;4916758;29;20044;-89
2022/04/26 05:32:03;;;;;;;36.92;22.67;;;;;;;;;;4904235;29;20012;-87
2022/04/26 05:34:28;;;;;;;39.20;23.88;;;;;;;;;;4915596;29;20025;-86
2022/04/26 05:36:56;;;;;;;44.60;24.77;;;;;;;;;;4902376;29;20035;-88
2022/04/26 05:39:21;;;;;;;42.65;23.33;;;;;;;;;;4898991;29;20020;-89
2022/04/26 05:41:46;;;;;;;45.38;25.98;;;;;;;;;;4899308;29;20090;-87
2022/04/26 05:44:11;;;;;;;39.85;23.50;;;;;;;;;;4898705;29;20051;-90
2022/04/26 05:46:36;;;;;;;41.42;23.98;;;;;;;;;;4899383;29;20043;-87
2022/04/26 05:49:02;;;;;;;47.25;25.27;;;;;;;;;;4898600;29;20072;-87
2022/04/26 05:51:27;;;;;;;38.45;22.85;;;;;;;;;;4898371;29;20020;-86
2022/04/26 05:53:52;;;;;;;42.53;23.73;;;;;;;;;;4915596;29;20024;-86
2022/04/26 05:56:17;;;;;;;39.03;23.02;;;;;;;;;;4900366;29;20048;-87
2022/04/26 05:58:43;;;;;;;41.97;24.73;;;;;;;;;;4898641;29;20028;-85
2022/04/26 06:01:08;;;;;;;45.00;23.25;;;;;;;;;;4916701;29;20103;-88
2022/04/26 06:03:36;;;;;;;44.92;25.17;;;;;;;;;;4898805;29;20119;-86
2022/04/26 06:06:01;;;;;;;43.58;24.52;;;;;;;;;;4916093;29;20110;-89
2022/04/26 06:08:26;;;;;;;43.15;23.13;;;;;;;;;;4915713;29;20074;-90
2022/04/26 06:10:52;;;;;;;44.60;24.75;;;;;;;;;;4911551;29;20032;-90
2022/04/26 06:13:17;;;;;;;40.10;23.83;;;;;;;;;;4954523;23;20094;-89
2022/04/26 06:15:42;;;;;;;44.50;23.83;;;;;;;;;;4918834;29;20019;-90
2022/04/26 06:18:08;;;;;;;40.58;23.58;;;;;;;;;;4918924;29;20031;-88
2022/04/26 06:20:33;;;;;;;43.63;23.80;;;;;;;;;;4918925;29;20030;-89
2022/04/26 06:22:58;;;;;;;43.75;25.27;;;;;;;;;;4930860;29;20028;-88
2022/04/26 06:25:23;;;;;;;41.08;23.88;;;;;;;;;;4918386;29;20071;-89
2022/04/26 06:27:49;;;;;;;38.05;22.95;;;;;;;;;;4918726;29;20020;-90
2022/04/26 06:30:15;;;;;;;39.85;22.95;;;;;;;;;;4935335;29;20030;-90
2022/04/26 06:32:42;;;;;;;36.60;22.75;;;;;;;;;;4937725;29;20016;-92
2022/04/26 06:35:08;;;;;;;37.42;22.23;;;;;;;;;;4934987;29;20106;-89
2022/04/26 06:37:33;;;;;;;43.13;23.20;;;;;;;;;;4919567;29;20443;-90
2022/04/26 06:39:59;;;;;;;42.95;23.83;;;;;;;;;;4919464;29;20114;-88
2022/04/26 06:42:24;;;;;;;36.45;22.23;;;;;;;;;;4915746;29;20079;-87
2022/04/26 06:44:49;;;;;;;41.63;23.05;;;;;;;;;;4933632;29;20047;-88
2022/04/26 06:47:14;;;;;;;49.28;26.15;;;;;;;;;;4936414;29;20027;-90
2022/04/26 06:49:40;;;;;;;50.92;27.17;;;;;;;;;;4923119;29;20024;-90
2022/04/26 06:52:05;;;;;;;41.78;22.60;;;;;;;;;;4926900;29;20039;-74
2022/04/26 06:54:31;;;;;;;42.88;24.38;;;;;;;;;;4936928;29;20016;-73
2022/04/26 06:56:56;;;;;;;37.13;22.50;;;;;;;;;;4918602;29;20030;-75
2022/04/26 06:59:22;;;;;;;35.95;21.52;;;;;;;;;;4936550;29;20471;-75
2022/04/26 07:01:52;;;;;;;36.97;22.75;;;;;;;;;;4937121;29;20016;-75
2022/04/26 07:04:21;;;;;;;38.72;24.15;;;;;;;;;;4936522;29;20041;-74
2022/04/26 07:06:46;;;;;;;36.60;22.70;;;;;;;;;;4920014;29;20024;-75
2022/04/26 07:09:12;;;;;;;36.22;22.38;;;;;;;;;;4937029;29;20479;-75
2022/04/26 07:11:37;;;;;;;34.17;21.88;;;;;;;;;;4918569;29;20501;-75
2022/04/26 07:14:03;;;;;;;38.55;23.48;;;;;;;;;;4927514;29;20054;-74
2022/04/26 07:16:28;;;;;;;40.75;24.10;;;;;;;;;;4936754;29;20102;-75
2022/04/26 07:18:53;;;;;;;43.08;24.13;;;;;;;;;;4919870;29;20027;-75
2022/04/26 07:21:18;;;;;;;42.42;23.02;;;;;;;;;;4936665;29;20360;-76
2022/04/26 07:23:44;;;;;;;39.42;22.80;;;;;;;;;;4919147;29;20046;-75
2022/04/26 07:26:09;;;;;;;38.42;23.27;;;;;;;;;;4915159;29;20475;-74
2022/04/26 07:28:34;;;;;;;37.60;23.33;;;;;;;;;;4930957;29;20094;-74
2022/04/26 07:30:59;;;;;;;35.83;22.95;;;;;;;;;;4930321;29;20012;-74
2022/04/26 07:36:09;;;;;;;35.92;21.92;;;;;;;;;;4929970;29;20464;-75
2022/04/26 07:38:35;;;;;;;38.03;22.77;;;;;;;;;;4920327;29;20372;-76
2022/04/26 07:41:03;;;;;;;34.22;20.52;;;;;;;;;;4935711;29;20035;-74
2022/04/26 07:43:28;;;;;;;36.22;22.60;;;;;;;;;;4935758;29;20094;-75
2022/04/26 07:45:54;;;;;;;30.42;19.30;;;;;;;;;;4918771;29;20186;-76
2022/04/26 07:48:21;;;;;;;33.55;21.42;;;;;;;;;;4935702;29;20480;-74
2022/04/26 07:50:47;;;;;;;32.83;20.33;;;;;;;;;;4935645;29;20024;-76
2022/04/26 07:53:12;;;;;;;31.77;20.63;;;;;;;;;;4930858;29;20502;-90
2022/04/26 07:55:38;;;;;;;30.98;20.15;;;;;;;;;;4919227;29;20011;-88
2022/04/26 07:58:04;;;;;;;32.60;21.27;;;;;;;;;;4933337;29;20020;-88
2022/04/26 08:00:29;;;;;;;36.80;21.10;;;;;;;;;;4929109;29;20472;-87
2022/04/26 08:02:55;;;;;;;37.38;20.30;;;;;;;;;;4931251;29;20105;-89
2022/04/26 08:05:20;;;;;;;31.00;18.80;;;;;;;;;;4919492;29;20011;-89
2022/04/26 08:07:45;;;;;;;27.25;17.85;;;;;;;;;;4922963;29;20455;-88
2022/04/26 08:10:12;;;;;;;30.23;17.30;;;;;;;;;;4933491;29;20020;-90
2022/04/26 08:12:41;;;;;;;26.73;17.45;;;;;;;;;;4931226;29;20028;-89
2022/04/26 08:15:06;;;;;;;;;;;;;;;;;;4938031;29;20023;-89
2022/04/26 08:17:31;;;;;;;29.17;16.67;;;;;;;;;;4920707;29;19984;-91
2022/04/26 08:19:56;;;;;;;25.52;15.30;;;;;;;;;;4934343;29;20103;-90
2022/04/26 08:22:22;;;;;;;25.50;14.55;;;;;;;;;;4917223;29;20028;-91
2022/04/26 08:27:33;;;;;;;27.23;16.15;;;;;;;;;;4923035;29;20058;-90
2022/04/26 08:29:59;;;;;;;29.42;14.98;;;;;;;;;;4920469;29;20472;-89
2022/04/26 08:32:26;;;;;;;23.50;14.48;;;;;;;;;;4937976;29;20062;-89
2022/04/26 08:34:52;;;;;;;25.85;14.90;;;;;;;;;;4932895;29;20020;-88
2022/04/26 08:37:17;;;;;;;25.80;15.38;;;;;;;;;;4936830;29;20027;-90
2022/04/26 08:39:45;;;;;;;23.35;14.63;;;;;;;;;;4919631;29;20026;-91
2022/04/26 08:42:10;;;;;;;19.15;13.20;;;;;;;;;;4935782;29;20030;-89
2022/04/26 08:44:35;;;;;;;19.98;11.65;;;;;;;;;;4936549;29;20032;-89
2022/04/26 08:52:44;;;;;;;20.50;13.07;;;;;;;;;;4948463;29;20035;-87
2022/04/26 08:55:11;;;;;;;21.83;12.20;;;;;;;;;;4948863;29;20102;-87
2022/04/26 08:57:37;;;;;;;13.25;8.25;;;;;;;;;;4929822;29;20019;-90
2022/04/26 09:00:05;;;;;;;13.02;7.22;;;;;;;;;;4936011;29;20026;-85
2022/04/26 09:02:30;;;;;;;11.00;6.70;;;;;;;;;;4944862;29;20031;-87
2022/04/26 09:05:00;;;;;;;15.88;8.93;;;;;;;;;;4940525;29;20032;-88
2022/04/26 09:07:29;;;;;;;13.55;8.55;;;;;;;;;;4936213;29;20051;-87
2022/04/26 09:10:11;;;;;;;14.82;9.50;;;;;;;;;;4938386;29;20023;-87
2022/04/26 09:12:55;;;;;;;14.40;8.82;;;;;;;;;;4946309;29;20032;-86
2022/04/26 09:15:20;;;;;;;18.63;10.05;;;;;;;;;;4937163;29;20073;-87
2022/04/26 09:17:45;;;;;;;14.85;9.25;;;;;;;;;;4952776;29;20027;-86
2022/04/26 09:20:11;;;;;;;14.50;8.95;;;;;;;;;;4956163;29;20027;-89
2022/04/26 09:22:38;;;;;;;14.70;9.18;;;;;;;;;;4951549;29;20511;-83
2022/04/26 09:25:07;;;;;;;15.15;9.50;;;;;;;;;;4939240;29;20087;-86
2022/04/26 09:27:37;;;;;;;15.00;9.07;;;;;;;;;;4940839;29;20042;-85
2022/04/26 09:30:10;;;;;;;13.07;7.82;;;;;;;;;;4926690;29;20054;-86
2022/04/26 09:32:45;;;;;;;14.15;7.78;;;;;;;;;;4928426;29;20047;-86
2022/04/26 09:35:17;;;;;;;17.10;7.75;;;;;;;;;;4936761;29;20020;-85
2022/04/26 09:37:43;;;;;;;15.40;8.45;;;;;;;;;;4936726;29;20027;-88
2022/04/26 09:40:11;;;;;;;13.10;8.18;;;;;;;;;;4935704;29;20024;-85
2022/04/26 09:42:36;;;;;;;14.43;8.33;;;;;;;;;;4943272;29;20050;-84
2022/04/26 09:45:08;;;;;;;12.77;7.50;;;;;;;;;;4939820;29;20261;-86
2022/04/26 09:47:40;;;;;;;12.63;7.47;;;;;;;;;;4929815;29;20019;-87
2022/04/26 09:50:06;;;;;;;14.68;8.20;;;;;;;;;;4925412;29;20024;-86
2022/04/26 09:52:32;;;;;;;12.40;7.20;;;;;;;;;;4917262;29;20020;-87
2022/04/26 09:55:00;;;;;;;12.40;7.70;;;;;;;;;;4917616;29;20107;-87
2022/04/26 09:57:28;;;;;;;10.13;6.95;;;;;;;;;;4930880;29;20059;-85
2022/04/26 09:59:53;;;;;;;13.00;6.82;;;;;;;;;;4933438;29;20024;-86
2022/04/26 10:02:19;;;;;;;12.98;7.00;;;;;;;;;;4935336;29;20027;-87
2022/04/26 10:04:46;;;;;;;15.20;10.20;;;;;;;;;;4921922;29;20131;-87
2022/04/26 10:07:13;;;;;;;12.35;7.80;;;;;;;;;;4935117;29;20016;-87
2022/04/26 10:09:38;;;;;;;12.43;6.82;;;;;;;;;;4917959;29;20020;-85
2022/04/26 10:12:04;;;;;;;13.70;8.18;;;;;;;;;;4920421;29;20110;-87
2022/04/26 10:14:30;;;;;;;15.35;8.85;;;;;;;;;;4933861;29;20399;-85
2022/04/26 10:16:56;;;;;;;12.35;7.80;;;;;;;;;;4926287;29;20028;-85
2022/04/26 10:19:34;;;;;;;12.25;7.22;;;;;;;;;;4932687;29;20551;-87
2022/04/26 10:21:59;;;;;;;12.52;8.15;;;;;;;;;;4915689;29;20495;-83
2022/04/26 10:24:25;;;;;;;14.95;7.95;;;;;;;;;;4920806;29;20035;-87
2022/04/26 10:26:51;;;;;;;11.20;6.80;;;;;;;;;;4919735;29;20484;-87
2022/04/26 10:29:23;;;;;;;10.93;6.60;;;;;;;;;;4932201;29;20055;-87
2022/04/26 10:31:56;;;;;;;11.25;6.57;;;;;;;;;;4921155;29;20019;-87
2022/04/26 10:34:29;;;;;;;10.40;6.72;;;;;;;;;;4936590;29;20027;-86
2022/04/26 10:36:54;;;;;;;8.90;5.80;;;;;;;;;;4921245;29;20023;-86
2022/04/26 10:39:20;;;;;;;9.45;6.38;;;;;;;;;;4937957;29;20027;-87
2022/04/26 10:41:46;;;;;;;9.88;5.88;;;;;;;;;;4921143;29;20038;-86
2022/04/26 10:44:15;;;;;;;11.70;6.75;;;;;;;;;;4938038;29;20024;-86
2022/04/26 10:46:40;;;;;;;9.20;6.25;;;;;;;;;;4920650;29;20019;-85
2022/04/26 10:49:24;;;;;;;9.50;6.28;;;;;;;;;;4938095;29;20030;-86
2022/04/26 10:51:56;;;;;;;9.35;5.88;;;;;;;;;;4906593;29;20011;-86
2022/04/26 10:54:40;;;;;;;11.20;5.63;;;;;;;;;;4925177;29;20042;-86
2022/04/26 10:57:05;;;;;;;11.85;6.00;;;;;;;;;;4920211;29;20106;-85
2022/04/26 10:59:31;;;;;;;7.75;4.88;;;;;;;;;;4937819;29;20051;-85
2022/04/26 11:01:56;;;;;;;8.50;5.25;;;;;;;;;;4939524;29;20054;-86
2022/04/26 11:04:21;;;;;;;8.27;5.43;;;;;;;;;;4926082;29;20022;-86
2022/04/26 11:06:47;;;;;;;6.95;3.92;;;;;;;;;;4938287;29;20066;-87
2022/04/26 11:09:16;;;;;;;8.88;4.43;;;;;;;;;;4938145;29;20020;-88
2022/04/26 11:11:45;;;;;;;7.22;4.90;;;;;;;;;;4937701;29;20016;-89
2022/04/26 11:14:10;;;;;;;7.47;4.22;;;;;;;;;;4920486;29;20388;-88
2022/04/26 11:16:36;;;;;;;9.27;6.32;;;;;;;;;;4920321;29;20087;-87
2022/04/26 11:19:01;;;;;;;10.02;5.40;;;;;;;;;;4935643;29;20059;-87
2022/04/26 11:21:27;;;;;;;6.90;4.97;;;;;;;;;;4937240;29;20035;-87
2022/04/26 11:29:34;;;;;;;7.45;4.32;;;;;;;;;;4935375;29;20018;-79
2022/04/26 11:32:00;;;;;;;7.07;4.13;;;;;;;;;;4936284;29;20059;-80
2022/04/26 11:34:41;;;;;;;8.25;4.47;;;;;;;;;;4918017;29;20051;-80
2022/04/26 11:37:07;;;;;;;7.45;4.70;;;;;;;;;;4936245;29;20067;-81
2022/04/26 11:39:39;;;;;;;7.50;4.15;;;;;;;;;;4919789;29;20508;-79
2022/04/26 11:42:04;;;;;;;9.52;5.10;;;;;;;;;;4936074;29;20015;-80
2022/04/26 11:44:30;;;;;;;7.22;4.35;;;;;;;;;;4933079;29;20027;-79
2022/04/26 11:46:59;;;;;;;6.95;4.82;;;;;;;;;;4934633;29;20024;-79
2022/04/26 11:49:40;;;;;;;8.05;4.20;;;;;;;;;;4918754;29;20511;-79
2022/04/26 11:52:05;;;;;;;5.93;4.03;;;;;;;;;;4936276;29;20062;-80
2022/04/26 11:54:34;;;;;;;6.28;4.15;;;;;;;;;;4934155;29;20043;-80
2022/04/26 11:57:00;;;;;;;8.15;4.80;;;;;;;;;;4936276;29;20472;-80
2022/04/26 11:59:25;;;;;;;5.93;4.15;;;;;;;;;;4935684;29;20023;-80
2022/04/26 12:01:53;;;;;;;7.07;3.85;;;;;;;;;;4934462;29;20020;-80
2022/04/26 12:04:19;;;;;;;8.07;4.18;;;;;;;;;;4933678;29;20037;-80
2022/04/26 12:06:44;;;;;;;5.97;3.72;;;;;;;;;;4935485;29;20031;-80
2022/04/26 12:09:12;;;;;;;8.25;4.15;;;;;;;;;;4935602;29;20062;-79
2022/04/26 12:11:40;;;;;;;8.45;5.05;;;;;;;;;;4935536;29;20012;-80
2022/04/26 12:14:08;;;;;;;6.72;3.95;;;;;;;;;;4918239;29;20044;-79
2022/04/26 12:16:39;;;;;;;7.70;3.90;;;;;;;;;;4917203;29;20503;-80
2022/04/26 12:19:05;;;;;;;7.30;4.38;;;;;;;;;;4936699;29;20036;-81
2022/04/26 12:21:42;;;;;;;6.88;3.92;;;;;;;;;;4914616;29;20039;-80
2022/04/26 12:24:12;;;;;;;8.15;3.42;;;;;;;;;;4917979;29;20016;-80
2022/04/26 12:26:54;;;;;;;6.60;3.42;;;;;;;;;;4935011;29;20019;-80
2022/04/26 12:29:20;;;;;;;7.97;4.13;;;;;;;;;;4935284;29;20012;-80
2022/04/26 12:31:47;;;;;;;6.28;4.10;;;;;;;;;;4934966;29;20015;-80
2022/04/26 12:34:19;;;;;;;9.32;5.70;;;;;;;;;;4934527;29;20147;-80
2022/04/26 12:37:02;;;;;;;6.32;3.75;;;;;;;;;;4934114;29;20020;-80
2022/04/26 12:39:36;;;;;;;8.07;3.80;;;;;;;;;;4934434;29;20016;-81
2022/04/26 12:42:02;;;;;;;5.13;3.25;;;;;;;;;;4917552;29;20043;-80
2022/04/26 12:44:27;;;;;;;5.50;3.53;;;;;;;;;;4934714;29;20475;-81
2022/04/26 12:52:41;;;;;;;6.88;3.25;;;;;;;;;;4934643;29;20082;-80
2022/04/26 12:55:06;;;;;;;5.88;3.20;;;;;;;;;;4928081;29;20027;-81
2022/04/26 12:57:44;;;;;;;5.80;3.42;;;;;;;;;;4934334;29;20034;-80
2022/04/26 13:00:10;;;;;;;5.85;3.10;;;;;;;;;;4934758;29;20594;-81
2022/04/26 13:02:35;;;;;;;4.55;2.75;;;;;;;;;;4917045;29;20114;-81
2022/04/26 13:05:01;;;;;;;5.65;2.60;;;;;;;;;;4917261;29;20024;-81
2022/04/26 13:07:26;;;;;;;5.00;3.10;;;;;;;;;;4935019;29;20031;-81
2022/04/26 13:09:51;;;;;;;6.77;3.07;;;;;;;;;;4917862;29;20398;-81
2022/04/26 13:12:16;;;;;;;5.18;3.05;;;;;;;;;;4922482;29;20298;-81
2022/04/26 13:14:41;;;;;;;4.43;2.85;;;;;;;;;;4936042;29;20079;-81
2022/04/26 13:17:07;;;;;;;5.30;3.00;;;;;;;;;;4934735;29;20452;-82
2022/04/26 13:19:32;;;;;;;7.03;3.80;;;;;;;;;;4933722;29;20654;-82
2022/04/26 13:21:57;;;;;;;5.83;3.57;;;;;;;;;;4932641;29;20420;-81
2022/04/26 13:24:28;;;;;;;5.85;3.25;;;;;;;;;;4933929;29;20055;-82
2022/04/26 13:26:53;;;;;;;8.55;3.38;;;;;;;;;;4934277;29;20026;-82
2022/04/26 13:29:18;;;;;;;6.53;3.60;;;;;;;;;;4934497;29;20023;-83
2022/04/26 13:31:43;;;;;;;11.93;3.50;;;;;;;;;;4920189;29;20027;-81
2022/04/26 13:34:12;;;;;;;4.17;2.93;;;;;;;;;;4936160;28;20493;-81
2022/04/26 13:36:37;;;;;;;;;;;;;;;;;;4935359;29;20028;-82
2022/04/26 13:39:03;;;;;;;4.43;2.90;;;;;;;;;;4934220;29;20363;-81
2022/04/26 13:41:28;;;;;;;5.65;3.03;;;;;;;;;;4917033;29;20026;-83
2022/04/26 13:43:54;;;;;;;5.93;3.28;;;;;;;;;;4916537;29;20476;-81
2022/04/26 13:46:19;;;;;;;6.63;3.37;;;;;;;;;;4922055;29;20023;-82
2022/04/26 13:48:45;;;;;;;11.77;4.10;;;;;;;;;;4933616;29;20333;-83
2022/04/26 13:51:11;;;;;;;14.85;3.55;;;;;;;;;;4917385;29;20064;-82
2022/04/26 13:53:36;;;;;;;4.15;2.85;;;;;;;;;;4916389;29;20028;-82
2022/04/26 13:56:06;;;;;;;4.87;2.63;;;;;;;;;;4917255;29;20494;-82
2022/04/26 13:58:31;;;;;;;4.68;2.67;;;;;;;;;;4933433;29;20254;-82
2022/04/26 14:00:57;;;;;;;5.85;2.80;;;;;;;;;;4934073;29;20336;-82
2022/04/26 14:03:22;;;;;;;6.07;3.50;;;;;;;;;;4933260;29;20028;-83
2022/04/26 14:05:47;;;;;;;5.53;3.43;;;;;;;;;;4916848;29;20265;-82
2022/04/26 14:08:12;;;;;;;6.87;3.00;;;;;;;;;;4930097;29;20262;-81
2022/04/26 14:10:38;;;;;;;4.70;2.55;;;;;;;;;;4933017;29;20456;-83
2022/04/26 14:13:04;;;;;;;4.43;2.63;;;;;;;;;;4916465;29;20522;-82
2022/04/26 14:23:42;;;;;;;2.80;1.70;;;;;;;;;;4933431;29;20035;-84
2022/04/26 14:26:07;;;;;;;3.75;2.40;;;;;;;;;;4916561;29;20027;-82
2022/04/26 14:28:33;;;;;;;3.20;1.95;;;;;;;;;;4916211;29;20495;-83
2022/04/26 14:30:58;;;;;;;3.90;2.20;;;;;;;;;;4925639;29;20027;-81
2022/04/26 14:33:23;;;;;;;6.13;2.38;;;;;;;;;;4933396;29;20420;-82
2022/04/26 14:35:48;;;;;;;3.83;1.97;;;;;;;;;;4934056;29;20016;-82
2022/04/26 14:38:14;;;;;;;3.17;1.90;;;;;;;;;;4933764;29;20243;-82
2022/04/26 14:40:39;;;;;;;5.00;2.40;;;;;;;;;;4933518;29;20443;-83
2022/04/26 14:43:05;;;;;;;4.85;2.10;;;;;;;;;;4916783;29;20400;-81
2022/04/26 14:45:32;;;;;;;6.00;2.55;;;;;;;;;;4933532;29;20115;-82
2022/04/26 14:47:58;;;;;;;3.40;2.28;;;;;;;;;;4933417;29;20023;-82
2022/04/26 14:50:23;;;;;;;7.35;2.40;;;;;;;;;;4932050;29;20106;-82
2022/04/26 14:52:48;;;;;;;2.70;1.40;;;;;;;;;;4933139;29;20035;-82
2022/04/26 14:55:13;;;;;;;4.93;2.42;;;;;;;;;;4933648;29;20254;-82
2022/04/26 14:57:39;;;;;;;3.28;1.88;;;;;;;;;;4933517;29;20039;-81
2022/04/26 15:00:06;;;;;;;4.03;1.80;;;;;;;;;;4933527;29;20479;-82
2022/04/26 15:02:38;;;;;;;4.25;2.25;;;;;;;;;;4921935;23;20053;-79
2022/04/26 15:05:07;;;;;;;4.65;1.90;;;;;;;;;;4896033;29;20027;-78
2022/04/26 15:09:42;;;;;;;5.35;2.47;;;;;;;;;;4894454;29;20047;-78
2022/04/26 15:10:18;;;;;;;6.60;2.70;;;;;;;;;;4897885;29;20464;-80
2022/04/26 15:18:20;;;;;;;8.50;2.78;;;;;;;;;;4899403;29;20108;-79
2022/04/26 15:20:48;;;;;;;4.68;2.40;;;;;;;;;;4891850;29;20017;-79
2022/04/26 15:23:15;;;;;;;3.05;1.90;;;;;;;;;;4898854;29;20032;-78
2022/04/26 15:25:41;;;;;;;4.45;2.30;;;;;;;;;;4912806;29;20036;-80
2022/04/26 15:28:08;;;;;;;5.55;2.55;;;;;;;;;;4899640;29;20052;-78
2022/04/26 15:33:41;;;;;;;3.42;2.00;;;;;;;;;;4889010;29;20083;-81
2022/04/26 15:36:06;;;;;;;3.53;1.73;;;;;;;;;;4899704;29;20025;-79
2022/04/26 15:38:33;;;;;;;3.97;1.83;;;;;;;;;;4899134;29;20021;-80
2022/04/26 15:41:02;;;;;;;4.07;1.85;;;;;;;;;;4898108;29;20029;-80
2022/04/26 15:43:31;;;;;;;3.55;1.80;;;;;;;;;;4913030;29;20024;-80
2022/04/26 15:45:57;;;;;;;4.90;2.47;;;;;;;;;;4899338;29;20028;-78
2022/04/26 15:48:25;;;;;;;5.47;3.10;;;;;;;;;;4897632;29;20016;-80
2022/04/26 15:50:51;;;;;;;4.10;1.80;;;;;;;;;;4898854;29;20100;-79
2022/04/26 15:53:16;;;;;;;3.22;1.42;;;;;;;;;;4896650;29;20214;-80
2022/04/26 15:55:41;;;;;;;3.08;1.88;;;;;;;;;;4899095;29;20408;-80
2022/04/26 15:58:08;;;;;;;3.08;1.80;;;;;;;;;;4898164;29;20017;-79
2022/04/26 16:00:37;;;;;;;5.75;2.72;;;;;;;;;;4897952;29;20016;-78
2022/04/26 16:03:06;;;;;;;3.15;2.00;;;;;;;;;;4896235;29;20059;-81
2022/04/26 16:05:31;;;;;;;5.53;2.42;;;;;;;;;;4896496;29;20024;-79
2022/04/26 16:07:57;;;;;;;7.10;2.22;;;;;;;;;;4896500;29;20036;-79
2022/04/26 16:21:22;;;;;;;3.35;1.67;;;;;;;;;;4897294;29;20084;-77
2022/04/26 16:23:47;;;;;;;5.68;2.10;;;;;;;;;;4897399;29;20096;-79
2022/04/26 16:26:19;;;;;;;5.50;2.15;;;;;;;;;;4897300;29;20057;-79
2022/04/26 16:28:46;;;;;;;4.70;2.22;;;;;;;;;;4904095;29;20484;-81
2022/04/26 16:31:14;;;;;;;5.22;2.78;;;;;;;;;;4907542;29;20031;-79
2022/04/26 16:33:40;;;;;;;;;;;;;;;;;;4897501;29;20025;-80
2022/04/26 16:36:07;;;;;;;3.77;2.00;;;;;;;;;;4911914;29;20527;-79
2022/04/26 16:38:33;;;;;;;4.50;2.20;;;;;;;;;;4896064;29;20343;-77
2022/04/26 16:40:58;;;;;;;6.13;2.92;;;;;;;;;;4905967;29;20104;-79
2022/04/26 16:43:24;;;;;;;5.22;2.28;;;;;;;;;;4909557;29;20172;-79
2022/04/26 16:45:57;;;;;;;7.25;2.00;;;;;;;;;;4896012;29;20024;-78
2022/04/26 16:48:23;;;;;;;5.18;1.95;;;;;;;;;;4897248;29;20029;-81
2022/04/26 16:50:49;;;;;;;3.42;1.77;;;;;;;;;;4897642;29;20060;-79
2022/04/26 16:53:14;;;;;;;4.53;2.13;;;;;;;;;;4895487;29;20067;-79
2022/04/26 16:55:40;;;;;;;7.00;2.63;;;;;;;;;;4897308;29;20017;-78
2022/04/26 16:58:06;;;;;;;3.72;2.00;;;;;;;;;;4897582;29;20024;-79
2022/04/26 17:00:31;;;;;;;3.58;1.95;;;;;;;;;;4895939;29;20036;-80
2022/04/26 17:02:57;;;;;;;4.75;2.72;;;;;;;;;;4896719;29;20412;-79
2022/04/26 17:05:22;;;;;;;4.78;2.42;;;;;;;;;;4896966;29;20025;-79
2022/04/26 17:07:51;;;;;;;4.28;2.08;;;;;;;;;;4896806;29;20076;-79
2022/04/26 17:10:17;;;;;;;5.32;2.17;;;;;;;;;;4900046;29;20025;-81
2022/04/26 17:12:48;;;;;;;3.95;2.13;;;;;;;;;;4896792;29;20504;-80
2022/04/26 17:15:15;;;;;;;6.53;2.47;;;;;;;;;;4895899;29;20071;-80
2022/04/26 17:17:41;;;;;;;5.60;2.20;;;;;;;;;;4895894;29;20024;-78
2022/04/26 17:20:09;;;;;;;3.67;2.33;;;;;;;;;;4898941;29;20029;-79
2022/04/26 17:22:35;;;;;;;8.27;2.65;;;;;;;;;;4895945;29;20095;-80
2022/04/26 17:25:16;;;;;;;4.30;2.42;;;;;;;;;;4897001;29;20112;-79
2022/04/26 17:27:42;;;;;;;5.78;2.40;;;;;;;;;;4895553;29;20032;-80
2022/04/26 17:30:08;;;;;;;3.65;2.13;;;;;;;;;;4896868;29;20080;-79
2022/04/26 17:32:33;;;;;;;6.38;2.40;;;;;;;;;;4894525;29;20484;-79
2022/04/26 17:34:59;;;;;;;3.58;2.13;;;;;;;;;;4894993;29;20021;-80
2022/04/26 17:37:25;;;;;;;4.13;2.15;;;;;;;;;;4896859;29;20017;-78
2022/04/26 17:39:50;;;;;;;4.38;2.30;;;;;;;;;;4902847;29;20469;-79
2022/04/26 17:42:16;;;;;;;5.45;2.80;;;;;;;;;;4896564;29;20020;-78
2022/04/26 17:44:42;;;;;;;6.55;2.92;;;;;;;;;;4894641;29;20433;-79
2022/04/26 17:47:07;;;;;;;6.55;2.70;;;;;;;;;;4897961;29;20029;-80
2022/04/26 17:49:33;;;;;;;5.40;2.65;;;;;;;;;;4897545;29;20027;-80
2022/04/26 17:51:58;;;;;;;5.68;2.53;;;;;;;;;;4910928;29;20276;-78
2022/04/26 17:57:11;;;;;;;6.25;2.65;;;;;;;;;;4898183;29;20150;-79
2022/04/26 17:59:37;;;;;;;4.78;2.38;;;;;;;;;;4895271;29;20135;-80
2022/04/26 18:02:02;;;;;;;5.20;2.50;;;;;;;;;;4896418;29;20033;-80
2022/04/26 18:04:30;;;;;;;5.95;2.45;;;;;;;;;;4894731;29;20025;-79
2022/04/26 18:06:56;;;;;;;6.80;2.63;;;;;;;;;;4894932;29;20104;-79
2022/04/26 18:09:22;;;;;;;4.90;2.47;;;;;;;;;;4896347;29;20028;-79
2022/04/26 18:11:47;;;;;;;6.78;2.92;;;;;;;;;;4894838;29;20101;-79
2022/04/26 18:14:13;;;;;;;3.90;2.20;;;;;;;;;;4896034;29;20016;-79
2022/04/26 18:16:39;;;;;;;6.53;2.75;;;;;;;;;;4894682;29;20484;-77
2022/04/26 18:19:10;;;;;;;6.30;3.05;;;;;;;;;;4900624;29;20035;-80
2022/04/26 18:21:35;;;;;;;5.60;2.97;;;;;;;;;;4897077;29;20028;-79
2022/04/26 18:24:01;;;;;;;7.45;3.13;;;;;;;;;;4894462;29;20384;-79
2022/04/26 18:26:26;;;;;;;6.18;3.80;;;;;;;;;;4894703;29;20028;-79
2022/04/26 18:28:53;;;;;;;7.13;4.43;;;;;;;;;;4894993;29;20267;-80
2022/04/26 18:31:19;;;;;;;8.63;3.20;;;;;;;;;;4895076;29;20021;-80
2022/04/26 18:33:45;;;;;;;6.88;3.13;;;;;;;;;;4882433;29;20292;-79
2022/04/26 18:36:20;;;;;;;6.88;3.22;;;;;;;;;;4895296;29;20349;-79
2022/04/26 18:38:50;;;;;;;5.68;2.92;;;;;;;;;;4895254;29;20036;-79
2022/04/26 18:41:16;;;;;;;4.97;2.80;;;;;;;;;;4894503;29;20025;-80
2022/04/26 18:43:42;;;;;;;6.28;2.80;;;;;;;;;;4894784;29;20028;-81
2022/04/26 18:46:08;;;;;;;6.72;3.03;;;;;;;;;;4899248;29;20392;-81
2022/04/26 18:48:34;;;;;;;9.82;3.38;;;;;;;;;;4899943;29;20080;-84
2022/04/26 18:51:00;;;;;;;6.43;3.08;;;;;;;;;;4900274;29;20031;-82
2022/04/26 18:53:31;;;;;;;4.40;2.95;;;;;;;;;;4899741;29;20021;-83
2022/04/26 18:55:56;;;;;;;5.07;2.72;;;;;;;;;;4899313;29;20076;-81
2022/04/26 18:58:23;;;;;;;6.85;3.40;;;;;;;;;;4898867;29;20067;-81
2022/04/26 19:00:51;;;;;;;5.53;3.03;;;;;;;;;;4900619;29;20503;-82
2022/04/26 19:03:16;;;;;;;7.70;3.50;;;;;;;;;;4914645;29;20032;-84
2022/04/26 19:05:41;;;;;;;6.95;3.58;;;;;;;;;;4899579;29;20400;-84